sensor_id;sensor_type;location;lat;lon;timestamp;pressure;altitude;pressure_sealevel;temperature;humidity
67803;BME280;54601;51.378;-1.342;2023-05-20T00:00:38;101421.36;;;20.92;34.71
67803;BME280;54601;51.378;-1.342;2023-05-20T00:03:04;101423.86;;;20.99;34.21
67803;BME280;54601;51.378;-1.342;2023-05-20T00:05:30;101427.36;;;21.11;34.40
67803;BME280;54601;51.378;-1.342;2023-05-20T00:07:56;101429.72;;;21.25;34.26
67803;BME280;54601;51.378;-1.342;2023-05-20T00:10:22;101427.75;;;20.69;34.45
67803;BME280;54601;51.378;-1.342;2023-05-20T00:12:48;101426.45;;;20.77;34.73
67803;BME280;54601;51.378;-1.342;2023-05-20T00:15:14;101425.01;;;21.07;34.30
67803;BME280;54601;51.378;-1.342;2023-05-20T00:17:40;101427.26;;;21.16;33.84
67803;BME280;54601;51.378;-1.342;2023-05-20T00:20:07;101430.51;;;21.12;34.17
67803;BME280;54601;51.378;-1.342;2023-05-20T00:22:32;101436.22;;;20.94;34.37
67803;BME280;54601;51.378;-1.342;2023-05-20T00:24:58;101436.08;;;21.00;34.26
67803;BME280;54601;51.378;-1.342;2023-05-20T00:27:24;101435.28;;;20.84;34.10
67803;BME280;54601;51.378;-1.342;2023-05-20T00:29:50;101433.01;;;20.76;34.52
67803;BME280;54601;51.378;-1.342;2023-05-20T00:32:16;101433.99;;;20.91;34.31
67803;BME280;54601;51.378;-1.342;2023-05-20T00:34:42;101434.88;;;20.92;34.20
67803;BME280;54601;51.378;-1.342;2023-05-20T00:37:08;101436.60;;;21.02;34.07
67803;BME280;54601;51.378;-1.342;2023-05-20T00:39:34;101436.43;;;20.96;34.17
67803;BME280;54601;51.378;-1.342;2023-05-20T00:42:00;101434.53;;;20.84;34.28
67803;BME280;54601;51.378;-1.342;2023-05-20T00:44:26;101432.10;;;20.82;33.87
67803;BME280;54601;51.378;-1.342;2023-05-20T00:46:52;101430.51;;;20.70;34.28
67803;BME280;54601;51.378;-1.342;2023-05-20T00:49:18;101429.50;;;20.26;34.83
67803;BME280;54601;51.378;-1.342;2023-05-20T00:51:44;101430.95;;;20.80;34.06
67803;BME280;54601;51.378;-1.342;2023-05-20T00:54:10;101427.80;;;20.68;34.18
67803;BME280;54601;51.378;-1.342;2023-05-20T00:56:36;101431.72;;;20.69;34.19
67803;BME280;54601;51.378;-1.342;2023-05-20T00:59:02;101431.10;;;20.84;33.95
67803;BME280;54601;51.378;-1.342;2023-05-20T01:01:28;101431.55;;;20.84;33.92
67803;BME280;54601;51.378;-1.342;2023-05-20T01:03:54;101429.77;;;20.87;33.77
67803;BME280;54601;51.378;-1.342;2023-05-20T01:06:20;101429.83;;;20.74;33.90
67803;BME280;54601;51.378;-1.342;2023-05-20T01:08:45;101428.43;;;20.43;34.31
67803;BME280;54601;51.378;-1.342;2023-05-20T01:11:16;101426.48;;;20.37;34.34
67803;BME280;54601;51.378;-1.342;2023-05-20T01:13:44;101422.60;;;20.60;34.09
67803;BME280;54601;51.378;-1.342;2023-05-20T01:16:04;101417.87;;;20.53;34.11
67803;BME280;54601;51.378;-1.342;2023-05-20T01:18:31;101415.92;;;20.20;34.16
67803;BME280;54601;51.378;-1.342;2023-05-20T01:20:56;101415.76;;;20.66;34.07
67803;BME280;54601;51.378;-1.342;2023-05-20T01:23:21;101409.22;;;20.63;33.81
67803;BME280;54601;51.378;-1.342;2023-05-20T01:25:47;101405.22;;;20.47;34.04
67803;BME280;54601;51.378;-1.342;2023-05-20T01:28:13;101401.81;;;20.68;33.67
67803;BME280;54601;51.378;-1.342;2023-05-20T01:30:46;101399.03;;;20.64;33.96
67803;BME280;54601;51.378;-1.342;2023-05-20T01:33:09;101400.74;;;20.63;33.97
67803;BME280;54601;51.378;-1.342;2023-05-20T01:35:32;101397.80;;;20.17;34.13
67803;BME280;54601;51.378;-1.342;2023-05-20T01:37:58;101397.05;;;20.53;34.01
67803;BME280;54601;51.378;-1.342;2023-05-20T01:40:24;101394.26;;;20.62;33.56
67803;BME280;54601;51.378;-1.342;2023-05-20T01:42:50;101393.39;;;20.55;33.64
67803;BME280;54601;51.378;-1.342;2023-05-20T01:45:15;101394.18;;;20.81;33.56
67803;BME280;54601;51.378;-1.342;2023-05-20T01:47:44;101395.10;;;20.69;33.36
67803;BME280;54601;51.378;-1.342;2023-05-20T01:50:08;101394.39;;;20.23;33.95
67803;BME280;54601;51.378;-1.342;2023-05-20T01:52:33;101392.28;;;20.22;33.92
67803;BME280;54601;51.378;-1.342;2023-05-20T01:54:59;101395.48;;;20.46;33.65
67803;BME280;54601;51.378;-1.342;2023-05-20T01:57:25;101392.56;;;20.26;33.79
67803;BME280;54601;51.378;-1.342;2023-05-20T01:59:51;101393.27;;;20.35;33.63
67803;BME280;54601;51.378;-1.342;2023-05-20T02:02:17;101392.82;;;20.68;33.12
67803;BME280;54601;51.378;-1.342;2023-05-20T02:04:45;101394.49;;;20.72;33.26
67803;BME280;54601;51.378;-1.342;2023-05-20T02:07:09;101393.46;;;20.29;33.66
67803;BME280;54601;51.378;-1.342;2023-05-20T02:09:35;101392.46;;;20.48;33.26
67803;BME280;54601;51.378;-1.342;2023-05-20T02:12:01;101389.27;;;19.99;33.93
67803;BME280;54601;51.378;-1.342;2023-05-20T02:14:27;101384.98;;;20.13;33.79
67803;BME280;54601;51.378;-1.342;2023-05-20T02:16:53;101382.95;;;20.04;33.75
67803;BME280;54601;51.378;-1.342;2023-05-20T02:19:19;101380.98;;;20.31;33.65
67803;BME280;54601;51.378;-1.342;2023-05-20T02:21:45;101374.04;;;20.43;33.53
67803;BME280;54601;51.378;-1.342;2023-05-20T02:24:11;101375.76;;;20.35;33.56
67803;BME280;54601;51.378;-1.342;2023-05-20T02:26:37;101373.91;;;20.49;33.34
67803;BME280;54601;51.378;-1.342;2023-05-20T02:29:03;101371.64;;;20.75;33.34
67803;BME280;54601;51.378;-1.342;2023-05-20T02:31:29;101370.67;;;20.58;33.44
67803;BME280;54601;51.378;-1.342;2023-05-20T02:33:55;101368.64;;;20.40;33.09
67803;BME280;54601;51.378;-1.342;2023-05-20T02:36:21;101367.50;;;20.02;33.54
67803;BME280;54601;51.378;-1.342;2023-05-20T02:38:47;101370.73;;;20.60;33.12
67803;BME280;54601;51.378;-1.342;2023-05-20T02:41:13;101367.31;;;20.39;33.60
67803;BME280;54601;51.378;-1.342;2023-05-20T02:43:39;101364.44;;;20.03;33.39
67803;BME280;54601;51.378;-1.342;2023-05-20T02:46:05;101364.62;;;20.65;33.15
67803;BME280;54601;51.378;-1.342;2023-05-20T02:48:31;101365.21;;;20.03;33.61
67803;BME280;54601;51.378;-1.342;2023-05-20T02:50:58;101364.60;;;20.39;33.48
67803;BME280;54601;51.378;-1.342;2023-05-20T02:53:23;101366.67;;;20.17;33.50
67803;BME280;54601;51.378;-1.342;2023-05-20T02:55:49;101368.82;;;20.59;33.19
67803;BME280;54601;51.378;-1.342;2023-05-20T02:58:15;101370.74;;;20.23;33.25
67803;BME280;54601;51.378;-1.342;2023-05-20T03:00:41;101371.42;;;20.71;32.91
67803;BME280;54601;51.378;-1.342;2023-05-20T03:03:07;101368.20;;;20.18;33.23
67803;BME280;54601;51.378;-1.342;2023-05-20T03:05:33;101369.95;;;20.54;32.80
67803;BME280;54601;51.378;-1.342;2023-05-20T03:07:59;101368.95;;;20.48;33.12
67803;BME280;54601;51.378;-1.342;2023-05-20T03:10:25;101368.52;;;20.14;33.46
67803;BME280;54601;51.378;-1.342;2023-05-20T03:12:51;101369.67;;;20.45;33.14
67803;BME280;54601;51.378;-1.342;2023-05-20T03:15:17;101368.78;;;20.32;33.18
67803;BME280;54601;51.378;-1.342;2023-05-20T03:17:43;101365.09;;;19.83;33.23
67803;BME280;54601;51.378;-1.342;2023-05-20T03:20:09;101365.18;;;19.89;33.40
67803;BME280;54601;51.378;-1.342;2023-05-20T03:22:35;101366.60;;;20.57;32.78
67803;BME280;54601;51.378;-1.342;2023-05-20T03:25:01;101364.18;;;20.48;32.94
67803;BME280;54601;51.378;-1.342;2023-05-20T03:27:27;101360.19;;;20.62;32.34
67803;BME280;54601;51.378;-1.342;2023-05-20T03:29:53;101355.80;;;20.37;32.91
67803;BME280;54601;51.378;-1.342;2023-05-20T03:32:19;101353.24;;;20.31;32.72
67803;BME280;54601;51.378;-1.342;2023-05-20T03:34:45;101351.00;;;20.17;33.19
67803;BME280;54601;51.378;-1.342;2023-05-20T03:37:11;101356.19;;;20.20;33.00
67803;BME280;54601;51.378;-1.342;2023-05-20T03:39:37;101354.29;;;20.13;32.92
67803;BME280;54601;51.378;-1.342;2023-05-20T03:42:03;101353.67;;;20.11;33.17
67803;BME280;54601;51.378;-1.342;2023-05-20T03:44:29;101353.74;;;20.52;32.68
67803;BME280;54601;51.378;-1.342;2023-05-20T03:46:55;101352.31;;;20.36;32.83
67803;BME280;54601;51.378;-1.342;2023-05-20T03:49:21;101352.73;;;20.13;32.44
67803;BME280;54601;51.378;-1.342;2023-05-20T03:51:47;101350.59;;;20.24;32.95
67803;BME280;54601;51.378;-1.342;2023-05-20T03:54:13;101348.81;;;20.15;32.97
67803;BME280;54601;51.378;-1.342;2023-05-20T03:56:39;101343.42;;;20.40;32.54
67803;BME280;54601;51.378;-1.342;2023-05-20T03:59:05;101342.80;;;20.23;32.87
67803;BME280;54601;51.378;-1.342;2023-05-20T04:01:31;101340.08;;;19.99;32.87
67803;BME280;54601;51.378;-1.342;2023-05-20T04:03:57;101341.48;;;20.61;32.29
67803;BME280;54601;51.378;-1.342;2023-05-20T04:06:23;101339.14;;;20.36;32.54
67803;BME280;54601;51.378;-1.342;2023-05-20T04:08:49;101335.95;;;20.48;32.48
67803;BME280;54601;51.378;-1.342;2023-05-20T04:11:13;101336.84;;;20.43;32.43
67803;BME280;54601;51.378;-1.342;2023-05-20T04:13:38;101336.21;;;20.18;32.71
67803;BME280;54601;51.378;-1.342;2023-05-20T04:16:04;101332.79;;;20.23;32.63
67803;BME280;54601;51.378;-1.342;2023-05-20T04:18:28;101334.79;;;20.44;32.21
67803;BME280;54601;51.378;-1.342;2023-05-20T04:20:53;101333.71;;;20.43;32.30
67803;BME280;54601;51.378;-1.342;2023-05-20T04:23:18;101331.72;;;20.07;32.63
67803;BME280;54601;51.378;-1.342;2023-05-20T04:25:43;101327.15;;;20.26;32.58
67803;BME280;54601;51.378;-1.342;2023-05-20T04:28:08;101324.97;;;19.92;32.37
67803;BME280;54601;51.378;-1.342;2023-05-20T04:30:33;101324.80;;;20.58;32.43
67803;BME280;54601;51.378;-1.342;2023-05-20T04:32:59;101328.28;;;20.06;32.73
67803;BME280;54601;51.378;-1.342;2023-05-20T04:35:24;101331.55;;;19.83;32.72
67803;BME280;54601;51.378;-1.342;2023-05-20T04:37:49;101335.78;;;20.10;32.28
67803;BME280;54601;51.378;-1.342;2023-05-20T04:40:14;101333.03;;;20.50;32.13
67803;BME280;54601;51.378;-1.342;2023-05-20T04:42:39;101337.70;;;20.37;32.40
67803;BME280;54601;51.378;-1.342;2023-05-20T04:45:05;101340.90;;;20.18;32.57
67803;BME280;54601;51.378;-1.342;2023-05-20T04:47:29;101338.01;;;19.93;32.88
67803;BME280;54601;51.378;-1.342;2023-05-20T04:49:54;101342.92;;;20.13;32.58
67803;BME280;54601;51.378;-1.342;2023-05-20T04:52:19;101346.04;;;20.15;32.50
67803;BME280;54601;51.378;-1.342;2023-05-20T04:54:44;101342.17;;;20.32;32.27
67803;BME280;54601;51.378;-1.342;2023-05-20T04:57:09;101341.76;;;19.92;32.82
67803;BME280;54601;51.378;-1.342;2023-05-20T04:59:34;101336.83;;;19.63;32.87
67803;BME280;54601;51.378;-1.342;2023-05-20T05:01:59;101336.17;;;20.15;32.46
67803;BME280;54601;51.378;-1.342;2023-05-20T05:04:24;101336.64;;;19.98;32.65
67803;BME280;54601;51.378;-1.342;2023-05-20T05:06:49;101334.23;;;19.98;32.48
67803;BME280;54601;51.378;-1.342;2023-05-20T05:09:14;101336.22;;;20.12;32.32
67803;BME280;54601;51.378;-1.342;2023-05-20T05:11:39;101339.87;;;20.19;32.34
67803;BME280;54601;51.378;-1.342;2023-05-20T05:14:04;101344.46;;;19.94;32.52
67803;BME280;54601;51.378;-1.342;2023-05-20T05:16:29;101341.75;;;20.25;32.19
67803;BME280;54601;51.378;-1.342;2023-05-20T05:18:54;101338.29;;;20.10;32.39
67803;BME280;54601;51.378;-1.342;2023-05-20T05:21:19;101340.87;;;20.20;32.30
67803;BME280;54601;51.378;-1.342;2023-05-20T05:23:45;101342.31;;;20.23;32.12
67803;BME280;54601;51.378;-1.342;2023-05-20T05:26:10;101340.30;;;20.15;32.26
67803;BME280;54601;51.378;-1.342;2023-05-20T05:28:35;101344.13;;;20.36;31.96
67803;BME280;54601;51.378;-1.342;2023-05-20T05:31:00;101343.83;;;20.07;32.79
67803;BME280;54601;51.378;-1.342;2023-05-20T05:33:25;101347.35;;;20.24;32.21
67803;BME280;54601;51.378;-1.342;2023-05-20T05:35:50;101349.07;;;20.26;32.13
67803;BME280;54601;51.378;-1.342;2023-05-20T05:38:15;101345.84;;;20.09;32.36
67803;BME280;54601;51.378;-1.342;2023-05-20T05:40:40;101350.00;;;20.33;32.02
67803;BME280;54601;51.378;-1.342;2023-05-20T05:43:05;101351.40;;;20.43;31.78
67803;BME280;54601;51.378;-1.342;2023-05-20T05:45:30;101351.42;;;20.23;31.90
67803;BME280;54601;51.378;-1.342;2023-05-20T05:47:55;101348.36;;;20.25;31.79
67803;BME280;54601;51.378;-1.342;2023-05-20T05:50:20;101349.05;;;19.99;32.37
67803;BME280;54601;51.378;-1.342;2023-05-20T05:52:45;101349.23;;;20.30;32.00
67803;BME280;54601;51.378;-1.342;2023-05-20T05:55:10;101351.26;;;20.30;32.06
67803;BME280;54601;51.378;-1.342;2023-05-20T05:57:35;101348.54;;;20.30;31.83
67803;BME280;54601;51.378;-1.342;2023-05-20T06:00:00;101350.65;;;20.20;31.86
67803;BME280;54601;51.378;-1.342;2023-05-20T06:02:26;101350.43;;;20.00;32.42
67803;BME280;54601;51.378;-1.342;2023-05-20T06:04:51;101350.83;;;20.08;32.28
67803;BME280;54601;51.378;-1.342;2023-05-20T06:07:16;101348.75;;;19.94;32.39
67803;BME280;54601;51.378;-1.342;2023-05-20T06:09:41;101349.00;;;20.40;31.76
67803;BME280;54601;51.378;-1.342;2023-05-20T06:12:06;101347.56;;;20.34;31.95
67803;BME280;54601;51.378;-1.342;2023-05-20T06:14:31;101347.73;;;20.53;31.78
67803;BME280;54601;51.378;-1.342;2023-05-20T06:16:56;101344.27;;;20.44;31.73
67803;BME280;54601;51.378;-1.342;2023-05-20T06:19:21;101339.73;;;20.24;31.89
67803;BME280;54601;51.378;-1.342;2023-05-20T06:21:47;101343.20;;;20.17;31.71
67803;BME280;54601;51.378;-1.342;2023-05-20T06:24:12;101345.65;;;20.23;31.94
67803;BME280;54601;51.378;-1.342;2023-05-20T06:26:37;101342.96;;;20.04;31.87
67803;BME280;54601;51.378;-1.342;2023-05-20T06:29:02;101341.11;;;20.75;31.36
67803;BME280;54601;51.378;-1.342;2023-05-20T06:31:27;101335.46;;;20.66;31.60
67803;BME280;54601;51.378;-1.342;2023-05-20T06:33:52;101336.61;;;20.86;31.38
67803;BME280;54601;51.378;-1.342;2023-05-20T06:36:17;101337.06;;;20.53;31.95
67803;BME280;54601;51.378;-1.342;2023-05-20T06:38:42;101335.42;;;20.86;31.76
67803;BME280;54601;51.378;-1.342;2023-05-20T06:41:07;101334.80;;;20.76;31.51
67803;BME280;54601;51.378;-1.342;2023-05-20T06:43:32;101335.39;;;20.47;31.62
67803;BME280;54601;51.378;-1.342;2023-05-20T06:45:57;101335.47;;;20.46;31.70
67803;BME280;54601;51.378;-1.342;2023-05-20T06:48:22;101334.35;;;20.42;31.84
67803;BME280;54601;51.378;-1.342;2023-05-20T06:50:47;101328.14;;;20.06;32.28
67803;BME280;54601;51.378;-1.342;2023-05-20T06:53:12;101328.23;;;19.70;32.72
67803;BME280;54601;51.378;-1.342;2023-05-20T06:55:37;101327.35;;;20.02;32.68
67803;BME280;54601;51.378;-1.342;2023-05-20T06:58:02;101324.69;;;19.86;32.68
67803;BME280;54601;51.378;-1.342;2023-05-20T07:00:27;101322.74;;;19.91;32.69
67803;BME280;54601;51.378;-1.342;2023-05-20T07:02:52;101323.57;;;20.48;32.64
67803;BME280;54601;51.378;-1.342;2023-05-20T07:05:18;101321.56;;;20.08;32.64
67803;BME280;54601;51.378;-1.342;2023-05-20T07:07:43;101322.32;;;19.50;33.56
67803;BME280;54601;51.378;-1.342;2023-05-20T07:10:09;101321.01;;;20.03;33.04
67803;BME280;54601;51.378;-1.342;2023-05-20T07:12:34;101323.22;;;19.93;32.95
67803;BME280;54601;51.378;-1.342;2023-05-20T07:15:01;101321.26;;;20.19;33.25
67803;BME280;54601;51.378;-1.342;2023-05-20T07:17:27;101323.76;;;20.05;33.47
67803;BME280;54601;51.378;-1.342;2023-05-20T07:19:52;101320.47;;;20.39;33.13
67803;BME280;54601;51.378;-1.342;2023-05-20T07:22:18;101321.08;;;19.91;33.23
67803;BME280;54601;51.378;-1.342;2023-05-20T07:24:44;101321.23;;;19.85;33.35
67803;BME280;54601;51.378;-1.342;2023-05-20T07:27:10;101316.89;;;20.34;33.36
67803;BME280;54601;51.378;-1.342;2023-05-20T07:29:36;101315.03;;;19.83;33.50
67803;BME280;54601;51.378;-1.342;2023-05-20T07:32:03;101312.70;;;19.81;33.59
67803;BME280;54601;51.378;-1.342;2023-05-20T07:34:28;101311.85;;;19.96;33.50
67803;BME280;54601;51.378;-1.342;2023-05-20T07:36:54;101308.16;;;20.04;33.45
67803;BME280;54601;51.378;-1.342;2023-05-20T07:39:20;101312.64;;;19.92;33.65
67803;BME280;54601;51.378;-1.342;2023-05-20T07:41:46;101308.60;;;19.84;33.48
67803;BME280;54601;51.378;-1.342;2023-05-20T07:44:12;101310.02;;;20.15;33.77
67803;BME280;54601;51.378;-1.342;2023-05-20T07:46:38;101310.79;;;19.92;33.84
67803;BME280;54601;51.378;-1.342;2023-05-20T07:49:04;101311.00;;;19.86;33.99
67803;BME280;54601;51.378;-1.342;2023-05-20T07:51:30;101310.75;;;19.93;33.97
67803;BME280;54601;51.378;-1.342;2023-05-20T07:53:56;101308.27;;;19.97;33.92
67803;BME280;54601;51.378;-1.342;2023-05-20T07:56:22;101312.67;;;19.95;33.96
67803;BME280;54601;51.378;-1.342;2023-05-20T07:58:52;101308.64;;;20.09;33.81
67803;BME280;54601;51.378;-1.342;2023-05-20T08:01:14;101309.49;;;19.97;33.98
67803;BME280;54601;51.378;-1.342;2023-05-20T08:03:40;101308.02;;;20.17;33.82
67803;BME280;54601;51.378;-1.342;2023-05-20T08:06:06;101307.33;;;19.82;33.97
67803;BME280;54601;51.378;-1.342;2023-05-20T08:08:31;101310.58;;;20.07;34.03
67803;BME280;54601;51.378;-1.342;2023-05-20T08:10:57;101303.92;;;20.01;34.17
67803;BME280;54601;51.378;-1.342;2023-05-20T08:13:24;101305.89;;;20.13;34.04
67803;BME280;54601;51.378;-1.342;2023-05-20T08:15:51;101304.46;;;20.06;34.22
67803;BME280;54601;51.378;-1.342;2023-05-20T08:18:15;101305.53;;;20.18;34.10
67803;BME280;54601;51.378;-1.342;2023-05-20T08:20:41;101306.78;;;20.03;34.03
67803;BME280;54601;51.378;-1.342;2023-05-20T08:23:07;101306.89;;;20.23;34.15
67803;BME280;54601;51.378;-1.342;2023-05-20T08:25:33;101303.93;;;20.19;33.95
67803;BME280;54601;51.378;-1.342;2023-05-20T08:28:00;101307.83;;;20.16;34.03
67803;BME280;54601;51.378;-1.342;2023-05-20T08:30:25;101308.96;;;20.32;34.16
67803;BME280;54601;51.378;-1.342;2023-05-20T08:32:50;101305.74;;;20.36;34.16
67803;BME280;54601;51.378;-1.342;2023-05-20T08:35:17;101303.63;;;20.28;33.99
67803;BME280;54601;51.378;-1.342;2023-05-20T08:37:42;101300.88;;;20.35;33.96
67803;BME280;54601;51.378;-1.342;2023-05-20T08:40:09;101299.92;;;20.36;33.96
67803;BME280;54601;51.378;-1.342;2023-05-20T08:42:34;101299.98;;;20.42;33.91
67803;BME280;54601;51.378;-1.342;2023-05-20T08:45:01;101305.39;;;20.77;33.53
67803;BME280;54601;51.378;-1.342;2023-05-20T08:47:26;101302.49;;;20.93;33.53
67803;BME280;54601;51.378;-1.342;2023-05-20T08:49:52;101301.50;;;20.85;33.73
67803;BME280;54601;51.378;-1.342;2023-05-20T08:52:20;101297.78;;;20.73;33.60
67803;BME280;54601;51.378;-1.342;2023-05-20T08:54:46;101302.25;;;20.83;33.58
67803;BME280;54601;51.378;-1.342;2023-05-20T08:57:10;101302.81;;;21.05;33.36
67803;BME280;54601;51.378;-1.342;2023-05-20T08:59:35;101302.69;;;21.25;33.20
67803;BME280;54601;51.378;-1.342;2023-05-20T09:02:01;101298.59;;;21.77;32.67
67803;BME280;54601;51.378;-1.342;2023-05-20T09:04:27;101295.17;;;21.62;32.81
67803;BME280;54601;51.378;-1.342;2023-05-20T09:06:53;101290.36;;;21.99;32.46
67803;BME280;54601;51.378;-1.342;2023-05-20T09:09:19;101288.94;;;21.94;32.48
67803;BME280;54601;51.378;-1.342;2023-05-20T09:11:44;101285.98;;;21.62;32.61
67803;BME280;54601;51.378;-1.342;2023-05-20T09:14:10;101280.81;;;22.06;32.18
67803;BME280;54601;51.378;-1.342;2023-05-20T09:16:38;101284.22;;;22.36;32.12
67803;BME280;54601;51.378;-1.342;2023-05-20T09:19:05;101284.32;;;22.31;32.13
67803;BME280;54601;51.378;-1.342;2023-05-20T09:21:28;101280.87;;;22.44;31.78
67803;BME280;54601;51.378;-1.342;2023-05-20T09:23:54;101275.80;;;22.37;31.88
67803;BME280;54601;51.378;-1.342;2023-05-20T09:26:19;101278.54;;;22.40;31.82
67803;BME280;54601;51.378;-1.342;2023-05-20T09:28:45;101275.08;;;22.65;31.81
67803;BME280;54601;51.378;-1.342;2023-05-20T09:31:13;101274.46;;;22.64;31.79
67803;BME280;54601;51.378;-1.342;2023-05-20T09:33:37;101275.72;;;22.63;31.81
67803;BME280;54601;51.378;-1.342;2023-05-20T09:36:04;101277.60;;;22.97;31.49
67803;BME280;54601;51.378;-1.342;2023-05-20T09:38:31;101271.25;;;22.10;31.87
67803;BME280;54601;51.378;-1.342;2023-05-20T09:40:54;101271.40;;;22.51;31.45
67803;BME280;54601;51.378;-1.342;2023-05-20T09:43:21;101267.42;;;22.74;31.20
67803;BME280;54601;51.378;-1.342;2023-05-20T09:45:46;101264.54;;;23.00;31.19
67803;BME280;54601;51.378;-1.342;2023-05-20T09:48:12;101263.70;;;22.49;31.43
67803;BME280;54601;51.378;-1.342;2023-05-20T09:50:38;101261.34;;;23.21;31.23
67803;BME280;54601;51.378;-1.342;2023-05-20T09:53:04;101258.23;;;22.65;31.27
67803;BME280;54601;51.378;-1.342;2023-05-20T09:55:30;101253.31;;;22.63;31.34
67803;BME280;54601;51.378;-1.342;2023-05-20T09:57:55;101246.25;;;23.14;31.08
67803;BME280;54601;51.378;-1.342;2023-05-20T10:00:21;101242.20;;;22.93;31.07
67803;BME280;54601;51.378;-1.342;2023-05-20T10:02:49;101240.40;;;23.09;31.12
67803;BME280;54601;51.378;-1.342;2023-05-20T10:05:15;101238.48;;;22.79;31.16
67803;BME280;54601;51.378;-1.342;2023-05-20T10:07:52;101242.40;;;23.20;30.79
67803;BME280;54601;51.378;-1.342;2023-05-20T10:10:13;101241.29;;;23.15;30.79
67803;BME280;54601;51.378;-1.342;2023-05-20T10:12:35;101240.34;;;23.23;30.75
67803;BME280;54601;51.378;-1.342;2023-05-20T10:15:08;101236.89;;;23.31;30.63
67803;BME280;54601;51.378;-1.342;2023-05-20T10:17:27;101234.55;;;23.15;30.78
67803;BME280;54601;51.378;-1.342;2023-05-20T10:19:48;101238.79;;;23.42;30.53
67803;BME280;54601;51.378;-1.342;2023-05-20T10:22:13;101231.98;;;23.65;30.60
67803;BME280;54601;51.378;-1.342;2023-05-20T10:24:41;101229.88;;;23.36;30.62
67803;BME280;54601;51.378;-1.342;2023-05-20T10:27:08;101234.74;;;23.88;30.57
67803;BME280;54601;51.378;-1.342;2023-05-20T10:31:57;101231.61;;;23.40;30.60
67803;BME280;54601;51.378;-1.342;2023-05-20T10:34:22;101232.85;;;23.32;30.68
67803;BME280;54601;51.378;-1.342;2023-05-20T10:36:56;101223.31;;;23.30;30.68
67803;BME280;54601;51.378;-1.342;2023-05-20T10:39:15;101222.32;;;23.57;30.72
67803;BME280;54601;51.378;-1.342;2023-05-20T10:41:40;101216.18;;;23.19;30.81
67803;BME280;54601;51.378;-1.342;2023-05-20T10:44:06;101217.44;;;23.24;30.76
67803;BME280;54601;51.378;-1.342;2023-05-20T10:46:33;101212.39;;;23.18;30.84
67803;BME280;54601;51.378;-1.342;2023-05-20T10:48:58;101210.64;;;23.40;30.88
67803;BME280;54601;51.378;-1.342;2023-05-20T10:51:24;101202.75;;;23.27;30.77
67803;BME280;54601;51.378;-1.342;2023-05-20T10:53:52;101201.05;;;23.13;30.93
67803;BME280;54601;51.378;-1.342;2023-05-20T10:56:16;101200.45;;;23.14;30.88
67803;BME280;54601;51.378;-1.342;2023-05-20T10:58:41;101195.59;;;23.32;30.97
67803;BME280;54601;51.378;-1.342;2023-05-20T11:01:07;101199.23;;;23.01;31.01
67803;BME280;54601;51.378;-1.342;2023-05-20T11:03:34;101198.78;;;23.08;30.99
67803;BME280;54601;51.378;-1.342;2023-05-20T11:05:58;101189.92;;;23.13;30.94
67803;BME280;54601;51.378;-1.342;2023-05-20T11:08:28;101183.70;;;23.09;31.02
67803;BME280;54601;51.378;-1.342;2023-05-20T11:10:50;101186.47;;;22.98;31.11
67803;BME280;54601;51.378;-1.342;2023-05-20T11:13:17;101184.31;;;23.47;31.07
67803;BME280;54601;51.378;-1.342;2023-05-20T11:15:42;101186.05;;;23.31;31.03
67803;BME280;54601;51.378;-1.342;2023-05-20T11:18:10;101187.65;;;23.01;31.07
67803;BME280;54601;51.378;-1.342;2023-05-20T11:20:33;101186.27;;;23.35;30.99
67803;BME280;54601;51.378;-1.342;2023-05-20T11:23:00;101185.92;;;22.99;31.09
67803;BME280;54601;51.378;-1.342;2023-05-20T11:25:25;101181.39;;;23.07;31.02
67803;BME280;54601;51.378;-1.342;2023-05-20T11:27:51;101175.87;;;22.96;31.10
67803;BME280;54601;51.378;-1.342;2023-05-20T11:30:17;101176.64;;;23.16;31.15
67803;BME280;54601;51.378;-1.342;2023-05-20T11:32:43;101178.69;;;22.92;31.15
67803;BME280;54601;51.378;-1.342;2023-05-20T11:35:20;101178.15;;;23.02;31.06
67803;BME280;54601;51.378;-1.342;2023-05-20T11:37:35;101177.77;;;23.20;31.12
67803;BME280;54601;51.378;-1.342;2023-05-20T11:40:05;101176.55;;;22.90;31.18
67803;BME280;54601;51.378;-1.342;2023-05-20T11:42:27;101175.70;;;23.22;31.13
67803;BME280;54601;51.378;-1.342;2023-05-20T11:44:52;101165.65;;;23.12;31.23
67803;BME280;54601;51.378;-1.342;2023-05-20T11:47:23;101167.92;;;22.90;31.18
67803;BME280;54601;51.378;-1.342;2023-05-20T11:49:47;101165.22;;;23.11;31.24
67803;BME280;54601;51.378;-1.342;2023-05-20T11:52:09;101154.90;;;22.89;31.20
67803;BME280;54601;51.378;-1.342;2023-05-20T11:54:35;101155.33;;;23.07;31.29
67803;BME280;54601;51.378;-1.342;2023-05-20T11:57:01;101150.24;;;23.13;31.23
67803;BME280;54601;51.378;-1.342;2023-05-20T11:59:27;101145.05;;;23.35;31.23
67803;BME280;54601;51.378;-1.342;2023-05-20T12:01:53;101147.27;;;23.46;31.11
67803;BME280;54601;51.378;-1.342;2023-05-20T12:04:19;101143.42;;;23.16;31.18
67803;BME280;54601;51.378;-1.342;2023-05-20T12:06:44;101139.90;;;23.04;31.29
67803;BME280;54601;51.378;-1.342;2023-05-20T12:09:10;101138.01;;;23.01;31.35
67803;BME280;54601;51.378;-1.342;2023-05-20T12:11:37;101140.23;;;23.10;31.23
67803;BME280;54601;51.378;-1.342;2023-05-20T12:14:02;101128.97;;;23.39;31.19
67803;BME280;54601;51.378;-1.342;2023-05-20T12:16:29;101131.87;;;23.16;31.20
67803;BME280;54601;51.378;-1.342;2023-05-20T12:18:53;101125.90;;;22.87;31.22
67803;BME280;54601;51.378;-1.342;2023-05-20T12:21:19;101129.21;;;23.31;31.28
67803;BME280;54601;51.378;-1.342;2023-05-20T12:23:45;101123.60;;;23.07;31.31
67803;BME280;54601;51.378;-1.342;2023-05-20T12:26:10;101118.38;;;22.86;31.25
67803;BME280;54601;51.378;-1.342;2023-05-20T12:28:36;101121.20;;;23.09;31.28
67803;BME280;54601;51.378;-1.342;2023-05-20T12:31:02;101121.78;;;23.04;31.33
67803;BME280;54601;51.378;-1.342;2023-05-20T12:33:28;101121.21;;;23.23;31.35